sensor_id;sensor_type;location;lat;lon;timestamp;P1;durP1;ratioP1;P2;durP2;ratioP2
611;SDS011;293;53.888;11.464;2023-06-24T00:00:01;9.97;;;8.60;;
611;SDS011;293;53.888;11.464;2023-06-24T00:02:32;11.20;;;9.80;;
611;SDS011;293;53.888;11.464;2023-06-24T00:05:02;10.60;;;9.53;;
611;SDS011;293;53.888;11.464;2023-06-24T00:07:30;13.10;;;9.87;;
611;SDS011;293;53.888;11.464;2023-06-24T00:09:57;10.33;;;9.27;;
611;SDS011;293;53.888;11.464;2023-06-24T00:12:23;10.60;;;9.50;;
611;SDS011;293;53.888;11.464;2023-06-24T00:14:51;10.33;;;9.37;;
611;SDS011;293;53.888;11.464;2023-06-24T00:17:18;15.87;;;11.30;;
611;SDS011;293;53.888;11.464;2023-06-24T00:19:45;10.70;;;9.67;;
611;SDS011;293;53.888;11.464;2023-06-24T00:22:13;11.60;;;10.10;;
611;SDS011;293;53.888;11.464;2023-06-24T00:24:40;12.40;;;9.43;;
611;SDS011;293;53.888;11.464;2023-06-24T00:27:07;12.97;;;10.37;;
611;SDS011;293;53.888;11.464;2023-06-24T00:29:34;9.70;;;8.77;;
611;SDS011;293;53.888;11.464;2023-06-24T00:32:01;10.87;;;9.77;;
611;SDS011;293;53.888;11.464;2023-06-24T00:34:28;11.17;;;10.27;;
611;SDS011;293;53.888;11.464;2023-06-24T00:36:55;10.80;;;9.77;;
611;SDS011;293;53.888;11.464;2023-06-24T00:39:23;12.50;;;9.47;;
611;SDS011;293;53.888;11.464;2023-06-24T00:41:50;11.10;;;10.00;;
611;SDS011;293;53.888;11.464;2023-06-24T00:44:17;11.73;;;10.10;;
611;SDS011;293;53.888;11.464;2023-06-24T00:46:44;11.10;;;10.10;;
611;SDS011;293;53.888;11.464;2023-06-24T00:49:11;12.20;;;11.00;;
611;SDS011;293;53.888;11.464;2023-06-24T00:51:41;12.00;;;10.43;;
611;SDS011;293;53.888;11.464;2023-06-24T00:54:15;10.10;;;9.10;;
611;SDS011;293;53.888;11.464;2023-06-24T00:56:43;10.50;;;9.40;;
611;SDS011;293;53.888;11.464;2023-06-24T00:59:12;11.50;;;10.40;;
611;SDS011;293;53.888;11.464;2023-06-24T01:01:41;10.53;;;9.00;;
611;SDS011;293;53.888;11.464;2023-06-24T01:04:09;10.80;;;9.90;;
611;SDS011;293;53.888;11.464;2023-06-24T01:06:36;15.37;;;11.97;;
611;SDS011;293;53.888;11.464;2023-06-24T01:09:08;13.93;;;12.67;;
611;SDS011;293;53.888;11.464;2023-06-24T01:11:35;12.50;;;10.43;;
611;SDS011;293;53.888;11.464;2023-06-24T01:14:04;10.70;;;9.70;;
611;SDS011;293;53.888;11.464;2023-06-24T01:16:32;12.37;;;10.70;;
611;SDS011;293;53.888;11.464;2023-06-24T01:19:08;10.00;;;9.00;;
611;SDS011;293;53.888;11.464;2023-06-24T01:21:57;9.67;;;8.57;;
611;SDS011;293;53.888;11.464;2023-06-24T01:24:47;10.30;;;9.00;;
611;SDS011;293;53.888;11.464;2023-06-24T01:27:42;11.80;;;8.47;;
611;SDS011;293;53.888;11.464;2023-06-24T01:30:36;10.33;;;9.30;;
611;SDS011;293;53.888;11.464;2023-06-24T01:33:18;10.93;;;9.40;;
611;SDS011;293;53.888;11.464;2023-06-24T01:35:51;10.50;;;8.80;;
611;SDS011;293;53.888;11.464;2023-06-24T01:38:21;9.63;;;8.60;;
611;SDS011;293;53.888;11.464;2023-06-24T01:40:52;11.37;;;9.03;;
611;SDS011;293;53.888;11.464;2023-06-24T01:43:20;9.97;;;8.47;;
611;SDS011;293;53.888;11.464;2023-06-24T01:45:50;11.97;;;10.07;;
611;SDS011;293;53.888;11.464;2023-06-24T01:48:21;9.77;;;8.67;;
611;SDS011;293;53.888;11.464;2023-06-24T01:50:53;9.57;;;8.60;;
611;SDS011;293;53.888;11.464;2023-06-24T01:53:24;9.60;;;7.83;;
611;SDS011;293;53.888;11.464;2023-06-24T01:55:52;9.27;;;8.47;;
611;SDS011;293;53.888;11.464;2023-06-24T01:58:20;10.20;;;9.20;;
611;SDS011;293;53.888;11.464;2023-06-24T02:00:48;9.13;;;7.77;;
611;SDS011;293;53.888;11.464;2023-06-24T02:03:16;11.87;;;8.03;;
611;SDS011;293;53.888;11.464;2023-06-24T02:05:46;8.30;;;7.60;;
611;SDS011;293;53.888;11.464;2023-06-24T02:08:14;12.13;;;9.40;;
611;SDS011;293;53.888;11.464;2023-06-24T02:10:43;9.53;;;8.73;;
611;SDS011;293;53.888;11.464;2023-06-24T02:13:11;9.93;;;8.73;;
611;SDS011;293;53.888;11.464;2023-06-24T02:15:39;9.67;;;8.80;;
611;SDS011;293;53.888;11.464;2023-06-24T02:18:07;9.13;;;8.23;;
611;SDS011;293;53.888;11.464;2023-06-24T02:20:35;9.33;;;8.53;;
611;SDS011;293;53.888;11.464;2023-06-24T02:23:05;10.53;;;9.40;;
611;SDS011;293;53.888;11.464;2023-06-24T02:25:34;14.33;;;8.60;;
611;SDS011;293;53.888;11.464;2023-06-24T02:28:04;9.43;;;8.53;;
611;SDS011;293;53.888;11.464;2023-06-24T02:30:32;9.50;;;8.70;;
611;SDS011;293;53.888;11.464;2023-06-24T02:33:01;10.53;;;8.13;;
611;SDS011;293;53.888;11.464;2023-06-24T02:35:29;10.57;;;9.07;;
611;SDS011;293;53.888;11.464;2023-06-24T02:37:56;12.50;;;8.47;;
611;SDS011;293;53.888;11.464;2023-06-24T02:40:24;9.97;;;9.00;;
611;SDS011;293;53.888;11.464;2023-06-24T02:42:53;9.10;;;8.20;;
611;SDS011;293;53.888;11.464;2023-06-24T02:45:20;14.13;;;9.83;;
611;SDS011;293;53.888;11.464;2023-06-24T02:47:47;10.20;;;9.10;;
611;SDS011;293;53.888;11.464;2023-06-24T02:50:16;11.10;;;9.03;;
611;SDS011;293;53.888;11.464;2023-06-24T02:52:44;16.50;;;10.03;;
611;SDS011;293;53.888;11.464;2023-06-24T02:55:11;9.70;;;8.80;;
611;SDS011;293;53.888;11.464;2023-06-24T02:57:41;9.67;;;8.77;;
611;SDS011;293;53.888;11.464;2023-06-24T03:00:09;11.60;;;9.83;;
611;SDS011;293;53.888;11.464;2023-06-24T03:02:38;9.60;;;8.33;;
611;SDS011;293;53.888;11.464;2023-06-24T03:05:06;11.57;;;9.90;;
611;SDS011;293;53.888;11.464;2023-06-24T03:07:35;9.23;;;8.33;;
611;SDS011;293;53.888;11.464;2023-06-24T03:10:04;9.90;;;7.70;;
611;SDS011;293;53.888;11.464;2023-06-24T03:12:31;9.60;;;8.60;;
611;SDS011;293;53.888;11.464;2023-06-24T03:15:00;16.17;;;9.30;;
611;SDS011;293;53.888;11.464;2023-06-24T03:17:27;11.00;;;8.27;;
611;SDS011;293;53.888;11.464;2023-06-24T03:19:53;12.23;;;8.63;;
611;SDS011;293;53.888;11.464;2023-06-24T03:22:21;9.13;;;8.33;;
611;SDS011;293;53.888;11.464;2023-06-24T03:24:47;13.47;;;9.23;;
611;SDS011;293;53.888;11.464;2023-06-24T03:27:16;11.00;;;8.40;;
611;SDS011;293;53.888;11.464;2023-06-24T03:29:43;14.43;;;9.10;;
611;SDS011;293;53.888;11.464;2023-06-24T03:32:12;10.40;;;9.53;;
611;SDS011;293;53.888;11.464;2023-06-24T03:34:39;8.63;;;7.70;;
611;SDS011;293;53.888;11.464;2023-06-24T03:37:05;10.53;;;9.53;;
611;SDS011;293;53.888;11.464;2023-06-24T03:39:32;10.63;;;9.27;;
611;SDS011;293;53.888;11.464;2023-06-24T03:41:59;11.90;;;10.80;;
611;SDS011;293;53.888;11.464;2023-06-24T03:44:26;8.97;;;7.87;;
611;SDS011;293;53.888;11.464;2023-06-24T03:46:53;11.43;;;9.43;;
611;SDS011;293;53.888;11.464;2023-06-24T03:49:21;13.30;;;9.30;;
611;SDS011;293;53.888;11.464;2023-06-24T03:51:48;8.70;;;7.90;;
611;SDS011;293;53.888;11.464;2023-06-24T03:54:15;13.70;;;8.77;;
611;SDS011;293;53.888;11.464;2023-06-24T03:56:42;12.43;;;8.73;;
611;SDS011;293;53.888;11.464;2023-06-24T03:59:09;10.30;;;8.20;;
611;SDS011;293;53.888;11.464;2023-06-24T04:01:36;7.83;;;6.80;;
611;SDS011;293;53.888;11.464;2023-06-24T04:04:02;8.23;;;7.53;;
611;SDS011;293;53.888;11.464;2023-06-24T04:06:31;9.83;;;7.37;;
611;SDS011;293;53.888;11.464;2023-06-24T04:08:58;8.70;;;7.80;;
611;SDS011;293;53.888;11.464;2023-06-24T04:11:24;8.27;;;7.47;;
611;SDS011;293;53.888;11.464;2023-06-24T04:13:51;9.13;;;7.57;;
611;SDS011;293;53.888;11.464;2023-06-24T04:16:18;9.13;;;7.70;;
611;SDS011;293;53.888;11.464;2023-06-24T04:18:45;7.73;;;6.00;;
611;SDS011;293;53.888;11.464;2023-06-24T04:21:12;7.70;;;6.23;;
611;SDS011;293;53.888;11.464;2023-06-24T04:23:40;7.50;;;6.80;;
611;SDS011;293;53.888;11.464;2023-06-24T04:26:07;6.20;;;5.70;;
611;SDS011;293;53.888;11.464;2023-06-24T04:28:34;6.70;;;6.00;;
611;SDS011;293;53.888;11.464;2023-06-24T04:31:01;7.40;;;5.30;;
611;SDS011;293;53.888;11.464;2023-06-24T04:33:30;6.77;;;5.27;;
611;SDS011;293;53.888;11.464;2023-06-24T04:35:56;5.30;;;4.90;;
611;SDS011;293;53.888;11.464;2023-06-24T04:38:25;5.70;;;5.23;;
611;SDS011;293;53.888;11.464;2023-06-24T04:40:53;7.27;;;6.57;;
611;SDS011;293;53.888;11.464;2023-06-24T04:43:20;9.33;;;5.90;;
611;SDS011;293;53.888;11.464;2023-06-24T04:45:47;5.43;;;5.00;;
611;SDS011;293;53.888;11.464;2023-06-24T04:48:14;7.00;;;4.83;;
611;SDS011;293;53.888;11.464;2023-06-24T04:50:41;5.83;;;5.27;;
611;SDS011;293;53.888;11.464;2023-06-24T04:53:08;6.67;;;6.07;;
611;SDS011;293;53.888;11.464;2023-06-24T04:55:35;5.90;;;4.80;;
611;SDS011;293;53.888;11.464;2023-06-24T04:58:03;5.30;;;4.90;;
611;SDS011;293;53.888;11.464;2023-06-24T05:00:30;4.90;;;4.50;;
611;SDS011;293;53.888;11.464;2023-06-24T05:02:57;6.60;;;5.47;;
611;SDS011;293;53.888;11.464;2023-06-24T05:05:24;5.40;;;4.87;;
611;SDS011;293;53.888;11.464;2023-06-24T05:07:51;5.80;;;5.30;;
611;SDS011;293;53.888;11.464;2023-06-24T05:10:18;4.50;;;4.20;;
611;SDS011;293;53.888;11.464;2023-06-24T05:12:45;4.97;;;4.47;;
611;SDS011;293;53.888;11.464;2023-06-24T05:15:13;6.00;;;5.50;;
611;SDS011;293;53.888;11.464;2023-06-24T05:17:42;5.90;;;5.40;;
611;SDS011;293;53.888;11.464;2023-06-24T05:20:09;5.93;;;5.43;;
611;SDS011;293;53.888;11.464;2023-06-24T05:22:36;7.33;;;5.57;;
611;SDS011;293;53.888;11.464;2023-06-24T05:25:04;5.23;;;4.50;;
611;SDS011;293;53.888;11.464;2023-06-24T05:27:31;6.73;;;5.97;;
611;SDS011;293;53.888;11.464;2023-06-24T05:29:58;7.70;;;5.47;;
611;SDS011;293;53.888;11.464;2023-06-24T05:32:26;5.60;;;5.10;;
611;SDS011;293;53.888;11.464;2023-06-24T05:34:53;6.03;;;5.53;;
611;SDS011;293;53.888;11.464;2023-06-24T05:37:20;6.60;;;6.07;;
611;SDS011;293;53.888;11.464;2023-06-24T05:39:47;4.53;;;3.50;;
611;SDS011;293;53.888;11.464;2023-06-24T05:42:14;4.80;;;4.40;;
611;SDS011;293;53.888;11.464;2023-06-24T05:44:40;5.07;;;4.30;;
611;SDS011;293;53.888;11.464;2023-06-24T05:47:07;5.63;;;4.90;;
611;SDS011;293;53.888;11.464;2023-06-24T05:49:36;4.47;;;4.17;;
611;SDS011;293;53.888;11.464;2023-06-24T05:52:03;5.40;;;4.90;;
611;SDS011;293;53.888;11.464;2023-06-24T05:54:30;5.13;;;4.63;;
611;SDS011;293;53.888;11.464;2023-06-24T05:56:57;7.20;;;5.93;;
611;SDS011;293;53.888;11.464;2023-06-24T05:59:24;7.33;;;6.03;;
611;SDS011;293;53.888;11.464;2023-06-24T06:01:50;5.40;;;4.90;;
611;SDS011;293;53.888;11.464;2023-06-24T06:04:17;7.17;;;4.90;;
611;SDS011;293;53.888;11.464;2023-06-24T06:06:45;7.17;;;6.50;;
611;SDS011;293;53.888;11.464;2023-06-24T06:09:13;6.57;;;6.07;;
611;SDS011;293;53.888;11.464;2023-06-24T06:11:39;6.57;;;4.60;;
611;SDS011;293;53.888;11.464;2023-06-24T06:14:06;6.70;;;5.40;;
611;SDS011;293;53.888;11.464;2023-06-24T06:16:33;5.90;;;5.40;;
611;SDS011;293;53.888;11.464;2023-06-24T06:19:00;7.30;;;5.40;;
611;SDS011;293;53.888;11.464;2023-06-24T06:21:28;6.27;;;5.77;;
611;SDS011;293;53.888;11.464;2023-06-24T06:23:56;4.67;;;4.20;;
611;SDS011;293;53.888;11.464;2023-06-24T06:26:23;5.10;;;4.70;;
611;SDS011;293;53.888;11.464;2023-06-24T06:28:50;5.90;;;4.93;;
611;SDS011;293;53.888;11.464;2023-06-24T06:31:18;5.60;;;5.20;;
611;SDS011;293;53.888;11.464;2023-06-24T06:33:46;6.30;;;4.93;;
611;SDS011;293;53.888;11.464;2023-06-24T06:36:13;4.30;;;3.90;;
611;SDS011;293;53.888;11.464;2023-06-24T06:38:40;8.80;;;5.87;;
611;SDS011;293;53.888;11.464;2023-06-24T06:41:08;4.50;;;4.10;;
611;SDS011;293;53.888;11.464;2023-06-24T06:43:35;5.80;;;5.23;;
611;SDS011;293;53.888;11.464;2023-06-24T06:46:02;7.57;;;4.30;;
611;SDS011;293;53.888;11.464;2023-06-24T06:48:29;5.97;;;5.37;;
611;SDS011;293;53.888;11.464;2023-06-24T06:50:56;6.80;;;5.80;;
611;SDS011;293;53.888;11.464;2023-06-24T06:53:23;5.07;;;4.57;;
611;SDS011;293;53.888;11.464;2023-06-24T06:55:50;5.47;;;5.07;;
611;SDS011;293;53.888;11.464;2023-06-24T06:58:19;6.10;;;5.50;;
611;SDS011;293;53.888;11.464;2023-06-24T07:00:45;8.90;;;6.50;;
611;SDS011;293;53.888;11.464;2023-06-24T07:03:12;6.87;;;6.27;;
611;SDS011;293;53.888;11.464;2023-06-24T07:05:39;6.33;;;5.70;;
611;SDS011;293;53.888;11.464;2023-06-24T07:08:06;6.53;;;6.03;;
611;SDS011;293;53.888;11.464;2023-06-24T07:10:33;6.77;;;6.17;;
611;SDS011;293;53.888;11.464;2023-06-24T07:13:00;5.97;;;5.37;;
611;SDS011;293;53.888;11.464;2023-06-24T07:15:28;6.57;;;6.03;;
611;SDS011;293;53.888;11.464;2023-06-24T07:17:55;7.37;;;6.13;;
611;SDS011;293;53.888;11.464;2023-06-24T07:20:22;7.63;;;7.10;;
611;SDS011;293;53.888;11.464;2023-06-24T07:22:49;6.57;;;6.00;;
611;SDS011;293;53.888;11.464;2023-06-24T07:25:16;13.37;;;6.30;;
611;SDS011;293;53.888;11.464;2023-06-24T07:27:43;7.10;;;6.50;;
611;SDS011;293;53.888;11.464;2023-06-24T07:30:10;7.60;;;6.40;;
611;SDS011;293;53.888;11.464;2023-06-24T07:32:38;9.40;;;6.50;;
611;SDS011;293;53.888;11.464;2023-06-24T07:35:05;10.60;;;8.17;;
611;SDS011;293;53.888;11.464;2023-06-24T07:37:33;6.63;;;5.93;;
611;SDS011;293;53.888;11.464;2023-06-24T07:40:00;6.13;;;5.30;;
611;SDS011;293;53.888;11.464;2023-06-24T07:42:30;5.77;;;5.37;;
611;SDS011;293;53.888;11.464;2023-06-24T07:44:57;6.10;;;4.97;;
611;SDS011;293;53.888;11.464;2023-06-24T07:47:23;5.20;;;4.63;;
611;SDS011;293;53.888;11.464;2023-06-24T07:49:52;34.33;;;31.33;;
611;SDS011;293;53.888;11.464;2023-06-24T07:52:19;8.67;;;8.00;;
611;SDS011;293;53.888;11.464;2023-06-24T07:54:46;6.67;;;6.07;;
611;SDS011;293;53.888;11.464;2023-06-24T07:57:12;8.70;;;8.00;;
611;SDS011;293;53.888;11.464;2023-06-24T07:59:39;8.10;;;7.40;;
611;SDS011;293;53.888;11.464;2023-06-24T08:02:06;7.27;;;6.17;;
611;SDS011;293;53.888;11.464;2023-06-24T08:04:33;5.37;;;4.87;;
611;SDS011;293;53.888;11.464;2023-06-24T08:07:01;5.40;;;4.87;;
611;SDS011;293;53.888;11.464;2023-06-24T08:09:29;5.50;;;4.37;;
611;SDS011;293;53.888;11.464;2023-06-24T08:11:57;5.27;;;4.57;;
611;SDS011;293;53.888;11.464;2023-06-24T08:14:24;6.63;;;5.20;;
611;SDS011;293;53.888;11.464;2023-06-24T08:16:51;5.40;;;5.00;;
611;SDS011;293;53.888;11.464;2023-06-24T08:19:18;8.50;;;6.17;;
611;SDS011;293;53.888;11.464;2023-06-24T08:21:45;6.37;;;5.83;;
611;SDS011;293;53.888;11.464;2023-06-24T08:24:13;5.80;;;5.30;;
611;SDS011;293;53.888;11.464;2023-06-24T08:29:25;6.80;;;6.20;;
611;SDS011;293;53.888;11.464;2023-06-24T08:31:58;5.90;;;5.40;;
611;SDS011;293;53.888;11.464;2023-06-24T08:34:25;7.80;;;5.40;;
611;SDS011;293;53.888;11.464;2023-06-24T08:36:52;6.50;;;5.80;;
611;SDS011;293;53.888;11.464;2023-06-24T08:39:20;6.00;;;4.97;;
611;SDS011;293;53.888;11.464;2023-06-24T08:41:47;8.40;;;6.03;;
611;SDS011;293;53.888;11.464;2023-06-24T08:44:14;6.27;;;5.67;;
611;SDS011;293;53.888;11.464;2023-06-24T08:46:41;7.53;;;6.70;;
611;SDS011;293;53.888;11.464;2023-06-24T08:49:10;7.17;;;6.47;;
611;SDS011;293;53.888;11.464;2023-06-24T08:51:43;6.07;;;5.53;;
611;SDS011;293;53.888;11.464;2023-06-24T08:54:14;7.57;;;6.73;;
611;SDS011;293;53.888;11.464;2023-06-24T08:56:42;8.63;;;6.27;;
611;SDS011;293;53.888;11.464;2023-06-24T08:59:09;9.10;;;6.47;;
611;SDS011;293;53.888;11.464;2023-06-24T09:01:36;7.40;;;6.80;;
611;SDS011;293;53.888;11.464;2023-06-24T09:04:04;6.60;;;6.10;;
611;SDS011;293;53.888;11.464;2023-06-24T09:06:30;7.23;;;5.70;;
611;SDS011;293;53.888;11.464;2023-06-24T09:08:58;8.30;;;7.33;;
611;SDS011;293;53.888;11.464;2023-06-24T09:11:25;13.80;;;11.90;;
611;SDS011;293;53.888;11.464;2023-06-24T09:13:57;16.47;;;14.80;;
611;SDS011;293;53.888;11.464;2023-06-24T09:16:25;12.50;;;9.93;;
611;SDS011;293;53.888;11.464;2023-06-24T09:18:53;7.23;;;6.70;;
611;SDS011;293;53.888;11.464;2023-06-24T09:21:23;7.63;;;5.70;;
611;SDS011;293;53.888;11.464;2023-06-24T09:23:52;6.70;;;5.83;;
611;SDS011;293;53.888;11.464;2023-06-24T09:26:20;6.10;;;5.60;;
611;SDS011;293;53.888;11.464;2023-06-24T09:28:49;7.37;;;6.57;;
611;SDS011;293;53.888;11.464;2023-06-24T09:31:17;6.60;;;6.00;;
611;SDS011;293;53.888;11.464;2023-06-24T09:33:45;6.40;;;5.90;;
611;SDS011;293;53.888;11.464;2023-06-24T09:36:12;7.73;;;5.70;;
611;SDS011;293;53.888;11.464;2023-06-24T09:38:40;7.30;;;6.60;;
611;SDS011;293;53.888;11.464;2023-06-24T09:41:09;9.93;;;6.50;;
611;SDS011;293;53.888;11.464;2023-06-24T09:43:36;7.23;;;6.60;;
611;SDS011;293;53.888;11.464;2023-06-24T09:49:01;7.27;;;6.60;;
611;SDS011;293;53.888;11.464;2023-06-24T09:51:28;10.30;;;7.20;;
611;SDS011;293;53.888;11.464;2023-06-24T09:53:55;9.70;;;7.20;;
611;SDS011;293;53.888;11.464;2023-06-24T09:56:22;10.40;;;8.10;;
611;SDS011;293;53.888;11.464;2023-06-24T09:58:49;10.27;;;6.80;;
611;SDS011;293;53.888;11.464;2023-06-24T10:01:16;9.53;;;6.10;;
611;SDS011;293;53.888;11.464;2023-06-24T10:03:45;7.83;;;6.67;;
611;SDS011;293;53.888;11.464;2023-06-24T10:06:12;7.53;;;5.40;;
611;SDS011;293;53.888;11.464;2023-06-24T10:08:39;6.63;;;6.00;;
611;SDS011;293;53.888;11.464;2023-06-24T10:11:06;9.10;;;6.30;;
611;SDS011;293;53.888;11.464;2023-06-24T10:13:32;7.57;;;5.60;;
611;SDS011;293;53.888;11.464;2023-06-24T10:16:00;9.13;;;6.40;;
611;SDS011;293;53.888;11.464;2023-06-24T10:18:34;20.63;;;18.83;;
611;SDS011;293;53.888;11.464;2023-06-24T10:21:03;9.03;;;6.43;;
611;SDS011;293;53.888;11.464;2023-06-24T10:23:31;6.67;;;5.53;;
611;SDS011;293;53.888;11.464;2023-06-24T10:25:59;7.27;;;5.20;;
611;SDS011;293;53.888;11.464;2023-06-24T10:28:26;5.83;;;5.33;;
611;SDS011;293;53.888;11.464;2023-06-24T10:30:56;7.30;;;5.40;;
611;SDS011;293;53.888;11.464;2023-06-24T10:33:23;5.27;;;4.77;;
611;SDS011;293;53.888;11.464;2023-06-24T10:35:50;7.00;;;4.23;;
611;SDS011;293;53.888;11.464;2023-06-24T10:38:19;6.00;;;5.40;;
611;SDS011;293;53.888;11.464;2023-06-24T10:40:46;6.20;;;5.20;;
611;SDS011;293;53.888;11.464;2023-06-24T10:43:25;10.40;;;5.73;;
611;SDS011;293;53.888;11.464;2023-06-24T10:45:54;5.37;;;4.63;;
611;SDS011;293;53.888;11.464;2023-06-24T10:48:23;5.13;;;4.63;;
611;SDS011;293;53.888;11.464;2023-06-24T10:50:50;8.43;;;5.70;;
611;SDS011;293;53.888;11.464;2023-06-24T10:53:18;5.63;;;4.20;;
611;SDS011;293;53.888;11.464;2023-06-24T10:55:45;5.23;;;4.37;;
611;SDS011;293;53.888;11.464;2023-06-24T10:58:13;5.03;;;4.60;;
611;SDS011;293;53.888;11.464;2023-06-24T11:00:41;5.40;;;4.77;;
611;SDS011;293;53.888;11.464;2023-06-24T11:03:09;5.50;;;5.00;;
611;SDS011;293;53.888;11.464;2023-06-24T11:05:39;5.60;;;5.10;;
611;SDS011;293;53.888;11.464;2023-06-24T11:08:07;3.80;;;3.50;;
611;SDS011;293;53.888;11.464;2023-06-24T11:10:42;3.80;;;3.50;;
611;SDS011;293;53.888;11.464;2023-06-24T11:13:10;5.70;;;4.13;;
611;SDS011;293;53.888;11.464;2023-06-24T11:15:38;3.97;;;3.57;;
611;SDS011;293;53.888;11.464;2023-06-24T11:18:07;2.93;;;2.73;;
611;SDS011;293;53.888;11.464;2023-06-24T11:20:35;3.93;;;3.53;;
611;SDS011;293;53.888;11.464;2023-06-24T11:23:06;5.40;;;3.40;;
611;SDS011;293;53.888;11.464;2023-06-24T11:25:37;5.13;;;3.07;;
611;SDS011;293;53.888;11.464;2023-06-24T11:28:12;3.63;;;2.60;;
611;SDS011;293;53.888;11.464;2023-06-24T11:30:40;3.10;;;2.80;;
611;SDS011;293;53.888;11.464;2023-06-24T11:33:07;3.53;;;2.70;;
611;SDS011;293;53.888;11.464;2023-06-24T11:35:34;3.40;;;3.10;;
611;SDS011;293;53.888;11.464;2023-06-24T11:38:02;6.50;;;3.00;;
611;SDS011;293;53.888;11.464;2023-06-24T11:40:30;7.03;;;3.93;;
611;SDS011;293;53.888;11.464;2023-06-24T11:42:59;3.47;;;3.17;;
611;SDS011;293;53.888;11.464;2023-06-24T11:45:28;4.43;;;3.27;;
611;SDS011;293;53.888;11.464;2023-06-24T11:48:01;2.40;;;2.20;;
611;SDS011;293;53.888;11.464;2023-06-24T11:50:30;6.37;;;3.50;;
611;SDS011;293;53.888;11.464;2023-06-24T11:52:57;3.33;;;3.03;;
611;SDS011;293;53.888;11.464;2023-06-24T11:55:25;3.13;;;2.73;;
611;SDS011;293;53.888;11.464;2023-06-24T11:57:53;3.37;;;3.07;;
611;SDS011;293;53.888;11.464;2023-06-24T12:00:22;3.70;;;3.40;;
611;SDS011;293;53.888;11.464;2023-06-24T12:02:52;3.77;;;3.13;;
611;SDS011;293;53.888;11.464;2023-06-24T12:05:20;3.57;;;3.10;;
611;SDS011;293;53.888;11.464;2023-06-24T12:07:51;5.73;;;2.83;;
611;SDS011;293;53.888;11.464;2023-06-24T12:10:21;3.00;;;2.77;;
611;SDS011;293;53.888;11.464;2023-06-24T12:12:48;3.60;;;3.00;;
611;SDS011;293;53.888;11.464;2023-06-24T12:15:14;2.87;;;2.67;;
611;SDS011;293;53.888;11.464;2023-06-24T12:17:41;5.93;;;4.13;;
611;SDS011;293;53.888;11.464;2023-06-24T12:20:10;4.40;;;3.33;;
611;SDS011;293;53.888;11.464;2023-06-24T12:22:39;4.07;;;3.30;;
611;SDS011;293;53.888;11.464;2023-06-24T12:25:06;4.40;;;3.73;;
611;SDS011;293;53.888;11.464;2023-06-24T12:27:34;4.00;;;3.33;;
611;SDS011;293;53.888;11.464;2023-06-24T12:30:01;2.80;;;2.60;;
611;SDS011;293;53.888;11.464;2023-06-24T12:32:28;3.97;;;3.60;;
611;SDS011;293;53.888;11.464;2023-06-24T12:34:55;3.33;;;3.03;;
611;SDS011;293;53.888;11.464;2023-06-24T12:37:23;3.90;;;3.27;;
611;SDS011;293;53.888;11.464;2023-06-24T12:39:50;4.50;;;4.10;;
611;SDS011;293;53.888;11.464;2023-06-24T12:42:17;6.73;;;4.60;;
611;SDS011;293;53.888;11.464;2023-06-24T12:44:44;4.50;;;4.10;;
611;SDS011;293;53.888;11.464;2023-06-24T12:47:11;3.90;;;3.17;;
611;SDS011;293;53.888;11.464;2023-06-24T12:49:38;3.87;;;3.57;;
611;SDS011;293;53.888;11.464;2023-06-24T12:52:05;6.73;;;5.27;;
611;SDS011;293;53.888;11.464;2023-06-24T12:54:34;4.43;;;4.03;;
611;SDS011;293;53.888;11.464;2023-06-24T12:57:01;6.73;;;5.07;;
611;SDS011;293;53.888;11.464;2023-06-24T12:59:28;5.37;;;4.97;;
611;SDS011;293;53.888;11.464;2023-06-24T13:01:55;6.03;;;5.43;;
611;SDS011;293;53.888;11.464;2023-06-24T13:04:22;6.90;;;4.10;;
611;SDS011;293;53.888;11.464;2023-06-24T13:06:50;5.10;;;4.70;;
611;SDS011;293;53.888;11.464;2023-06-24T13:09:18;5.40;;;4.90;;
611;SDS011;293;53.888;11.464;2023-06-24T13:11:46;4.83;;;4.43;;
611;SDS011;293;53.888;11.464;2023-06-24T13:14:14;4.93;;;4.40;;
611;SDS011;293;53.888;11.464;2023-06-24T13:16:41;6.97;;;6.37;;
611;SDS011;293;53.888;11.464;2023-06-24T13:19:07;5.27;;;4.77;;
611;SDS011;293;53.888;11.464;2023-06-24T13:21:34;5.17;;;4.37;;
611;SDS011;293;53.888;11.464;2023-06-24T13:24:01;6.97;;;6.37;;
611;SDS011;293;53.888;11.464;2023-06-24T13:26:28;6.60;;;6.00;;
611;SDS011;293;53.888;11.464;2023-06-24T13:28:57;7.00;;;6.40;;
611;SDS011;293;53.888;11.464;2023-06-24T13:31:24;6.37;;;5.80;;
611;SDS011;293;53.888;11.464;2023-06-24T13:33:50;9.03;;;5.53;;
611;SDS011;293;53.888;11.464;2023-06-24T13:36:31;7.63;;;6.93;;
611;SDS011;293;53.888;11.464;2023-06-24T13:39:00;6.93;;;5.70;;
611;SDS011;293;53.888;11.464;2023-06-24T13:41:28;5.47;;;5.07;;
611;SDS011;293;53.888;11.464;2023-06-24T13:43:58;4.90;;;4.40;;
611;SDS011;293;53.888;11.464;2023-06-24T13:46:25;5.60;;;5.00;;
611;SDS011;293;53.888;11.464;2023-06-24T13:48:52;5.77;;;5.10;;
611;SDS011;293;53.888;11.464;2023-06-24T13:51:19;4.63;;;4.23;;
611;SDS011;293;53.888;11.464;2023-06-24T13:53:47;5.57;;;4.70;;
611;SDS011;293;53.888;11.464;2023-06-24T13:56:15;4.40;;;4.03;;
611;SDS011;293;53.888;11.464;2023-06-24T13:58:42;5.03;;;4.53;;
611;SDS011;293;53.888;11.464;2023-06-24T14:01:10;4.97;;;4.67;;
611;SDS011;293;53.888;11.464;2023-06-24T14:03:37;6.10;;;5.70;;
611;SDS011;293;53.888;11.464;2023-06-24T14:06:04;4.73;;;4.33;;
611;SDS011;293;53.888;11.464;2023-06-24T14:08:31;5.90;;;5.50;;
611;SDS011;293;53.888;11.464;2023-06-24T14:10:59;5.40;;;5.00;;
611;SDS011;293;53.888;11.464;2023-06-24T14:13:26;5.93;;;5.33;;
611;SDS011;293;53.888;11.464;2023-06-24T14:15:53;5.00;;;4.33;;
611;SDS011;293;53.888;11.464;2023-06-24T14:18:22;5.23;;;4.83;;
611;SDS011;293;53.888;11.464;2023-06-24T14:20:50;4.70;;;4.30;;
611;SDS011;293;53.888;11.464;2023-06-24T14:23:17;4.67;;;4.23;;
611;SDS011;293;53.888;11.464;2023-06-24T14:25:44;4.70;;;4.30;;
611;SDS011;293;53.888;11.464;2023-06-24T14:28:11;5.53;;;5.03;;
611;SDS011;293;53.888;11.464;2023-06-24T14:30:38;4.20;;;3.90;;
611;SDS011;293;53.888;11.464;2023-06-24T14:33:06;4.83;;;4.43;;
611;SDS011;293;53.888;11.464;2023-06-24T14:35:34;5.23;;;4.73;;
611;SDS011;293;53.888;11.464;2023-06-24T14:38:01;5.43;;;4.93;;
611;SDS011;293;53.888;11.464;2023-06-24T14:40:28;6.37;;;4.93;;
611;SDS011;293;53.888;11.464;2023-06-24T14:42:55;5.43;;;4.93;;
611;SDS011;293;53.888;11.464;2023-06-24T14:45:22;4.53;;;4.13;;
611;SDS011;293;53.888;11.464;2023-06-24T14:47:49;6.53;;;6.03;;
611;SDS011;293;53.888;11.464;2023-06-24T14:50:16;5.23;;;4.80;;
611;SDS011;293;53.888;11.464;2023-06-24T14:52:44;4.80;;;4.40;;
611;SDS011;293;53.888;11.464;2023-06-24T14:55:11;5.90;;;5.37;;
611;SDS011;293;53.888;11.464;2023-06-24T14:57:38;5.07;;;4.67;;
611;SDS011;293;53.888;11.464;2023-06-24T15:00:05;5.20;;;4.80;;
611;SDS011;293;53.888;11.464;2023-06-24T15:02:33;5.13;;;4.70;;
611;SDS011;293;53.888;11.464;2023-06-24T15:05:00;5.03;;;4.30;;
611;SDS011;293;53.888;11.464;2023-06-24T15:07:27;5.97;;;5.40;;
611;SDS011;293;53.888;11.464;2023-06-24T15:09:55;5.17;;;4.30;;
611;SDS011;293;53.888;11.464;2023-06-24T15:12:22;5.00;;;4.60;;
611;SDS011;293;53.888;11.464;2023-06-24T15:14:49;7.50;;;4.87;;
611;SDS011;293;53.888;11.464;2023-06-24T15:17:16;3.67;;;3.47;;
611;SDS011;293;53.888;11.464;2023-06-24T15:19:42;5.13;;;4.63;;
611;SDS011;293;53.888;11.464;2023-06-24T15:22:09;4.87;;;4.50;;
611;SDS011;293;53.888;11.464;2023-06-24T15:24:36;7.40;;;5.13;;
611;SDS011;293;53.888;11.464;2023-06-24T15:27:05;6.60;;;5.17;;
611;SDS011;293;53.888;11.464;2023-06-24T15:29:32;4.50;;;4.17;;
611;SDS011;293;53.888;11.464;2023-06-24T15:31:59;5.23;;;4.73;;
611;SDS011;293;53.888;11.464;2023-06-24T15:34:26;5.17;;;4.77;;
611;SDS011;293;53.888;11.464;2023-06-24T15:36:54;4.70;;;4.27;;